Time;durP1;ratioP1;P1;durP2;ratioP2;P2;SDS_P1;SDS_P2;PMS_P1;PMS_P2;Temp;Humidity;BMP_temperature;BMP_pressure;BME280_temperature;BME280_humidity;BME280_pressure;Samples;Min_cycle;Max_cycle;Signal;HPM_P1;HPM_P2
2022/05/09 00:02:05;;;;;;;0.93;0.93;;;13.30;99.90;13.00;102522.00;;;;5050860;28;20186;-71
2022/05/09 00:04:39;;;;;;;0.30;0.30;;;13.30;99.90;12.50;102499.00;;;;5050099;28;20367;-71
2022/05/09 00:07:08;;;;;;;0.50;0.50;;;13.10;99.90;12.60;102498.00;;;;5051099;28;20179;-71
2022/05/09 00:09:37;;;;;;;0.50;0.50;;;12.90;99.90;11.80;102510.00;;;;5050865;28;20238;-71
2022/05/09 00:12:06;;;;;;;0.50;0.50;;;12.50;99.90;11.80;102490.00;;;;5049945;28;20188;-71
2022/05/09 00:14:36;;;;;;;0.50;0.50;;;12.40;99.90;11.70;102500.00;;;;5050152;28;20175;-71
2022/05/09 00:17:02;;;;;;;0.50;0.50;;;12.30;99.90;12.10;102511.00;;;;5050663;28;20171;-71
2022/05/09 00:19:28;;;;;;;0.40;0.40;;;12.30;99.90;12.90;102505.00;;;;5050882;28;20228;-70
2022/05/09 00:21:57;;;;;;;0.40;0.40;;;12.70;99.90;12.00;102493.00;;;;5050312;28;20186;-71
2022/05/09 00:24:26;;;;;;;0.40;0.40;;;12.50;99.90;12.20;102499.00;;;;5050312;28;20193;-71
2022/05/09 00:26:57;;;;;;;0.50;0.50;;;12.40;99.90;12.20;102495.00;;;;5050551;28;20264;-71
2022/05/09 00:29:26;;;;;;;0.40;0.40;;;12.40;99.90;12.70;102507.00;;;;5033729;28;20183;-70
2022/05/09 00:31:58;;;;;;;0.50;0.50;;;12.50;99.90;12.90;102499.00;;;;5034723;28;20221;-70
2022/05/09 00:34:30;;;;;;;0.70;0.70;;;12.80;99.90;12.80;102499.00;;;;5050133;28;20257;-70
2022/05/09 00:37:12;;;;;;;0.40;0.40;;;12.80;99.90;13.00;102467.00;;;;5050712;28;20547;-70
2022/05/09 00:39:41;;;;;;;0.40;0.40;;;13.00;99.90;12.50;102492.00;;;;5034958;28;20644;-70
2022/05/09 00:42:12;;;;;;;0.90;0.90;;;12.80;99.90;13.00;102493.00;;;;5050395;28;20185;-70
2022/05/09 00:44:44;;;;;;;0.80;0.80;;;12.80;99.90;13.00;102504.00;;;;5050502;28;20626;-70
2022/05/09 00:47:33;;;;;;;0.50;0.50;;;13.00;99.90;12.90;102492.00;;;;5034913;28;20210;-70
2022/05/09 00:50:05;;;;;;;0.70;0.70;;;13.00;99.90;12.90;102490.00;;;;5034681;28;20548;-70
2022/05/09 00:52:50;;;;;;;0.40;0.40;;;12.90;99.90;12.00;102475.00;;;;5033519;28;20249;-70
2022/05/09 00:55:29;;;;;;;0.83;0.83;;;12.70;99.90;12.70;102467.00;;;;5048742;28;20209;-70
2022/05/09 00:58:23;;;;;;;0.40;0.40;;;12.70;99.90;12.50;102498.00;;;;5050244;28;20186;-70
2022/05/09 01:00:53;;;;;;;0.50;0.50;;;12.60;99.90;12.70;102453.00;;;;5034194;28;20725;-70
2022/05/09 01:03:38;;;;;;;0.70;0.70;;;12.80;99.90;12.90;102487.00;;;;5049844;28;20281;-69
2022/05/09 01:06:07;;;;;;;0.50;0.50;;;12.80;99.90;12.60;102480.00;;;;5049919;28;20182;-70
2022/05/09 01:08:35;;;;;;;0.70;0.70;;;12.90;99.90;12.60;102470.00;;;;5049595;28;20630;-70
2022/05/09 01:11:20;;;;;;;0.40;0.40;;;12.70;99.90;12.00;102442.00;;;;5049556;28;20187;-70
2022/05/09 01:13:53;;;;;;;0.50;0.50;;;12.60;99.90;12.30;102481.00;;;;5049702;28;20193;-70
2022/05/09 01:16:20;;;;;;;0.40;0.40;;;12.50;99.90;12.20;102467.00;;;;5049724;28;20179;-70
2022/05/09 01:19:36;;;;;;;1.33;1.30;;;12.50;99.90;11.90;102477.00;;;;5049605;28;20182;-70
2022/05/09 01:22:25;;;;;;;0.43;0.43;;;12.50;99.90;11.50;102484.00;;;;5049487;28;20192;-70
2022/05/09 01:24:57;;;;;;;0.47;0.47;;;12.20;99.90;11.90;102483.00;;;;5031867;28;20606;-70
2022/05/09 01:27:23;;;;;;;10.33;2.10;;;12.10;99.90;11.50;102446.00;;;;5049622;28;20171;-70
2022/05/09 01:30:08;;;;;;;0.40;0.40;;;12.00;99.90;12.00;102448.00;;;;5049392;28;20225;-71
2022/05/09 01:32:43;;;;;;;0.40;0.40;;;12.10;99.90;12.00;102478.00;;;;5048848;28;20708;-70
2022/05/09 01:35:16;;;;;;;0.60;0.60;;;12.10;99.90;12.20;102438.00;;;;5034141;28;20166;-70
2022/05/09 01:37:55;;;;;;;0.50;0.50;;;12.20;99.90;12.30;102466.00;;;;5049331;28;20175;-70
2022/05/09 01:40:24;;;;;;;0.50;0.50;;;12.30;99.90;12.30;102466.00;;;;5048919;28;20693;-69
2022/05/09 01:42:54;;;;;;;0.50;0.50;;;12.30;99.90;12.10;102454.00;;;;5049181;28;20174;-70
2022/05/09 01:45:25;;;;;;;1.13;1.13;;;12.30;99.90;12.50;102458.00;;;;5033829;28;20184;-70
2022/05/09 01:50:45;;;;;;;0.50;0.50;;;12.40;99.90;12.20;102455.00;;;;5046709;28;20252;-68
2022/05/09 01:53:14;;;;;;;0.80;0.80;;;12.40;99.90;12.10;102460.00;;;;5048789;28;20687;-68
2022/05/09 01:55:43;;;;;;;0.40;0.40;;;12.30;99.90;11.70;102454.00;;;;5048610;28;20590;-69
2022/05/09 01:58:09;;;;;;;0.40;0.40;;;12.10;99.90;11.50;102452.00;;;;5048881;28;20651;-69
2022/05/09 02:00:41;;;;;;;0.50;0.50;;;12.00;99.90;11.50;102417.00;;;;5049080;28;20195;-68
2022/05/09 02:03:10;;;;;;;0.40;0.40;;;11.90;99.90;11.60;102462.00;;;;5049004;28;20194;-70
2022/05/09 02:05:38;;;;;;;1.33;1.33;;;11.70;99.90;11.60;102415.00;;;;5048049;28;20185;-70
2022/05/09 02:08:05;;;;;;;0.43;0.43;;;11.80;99.90;11.70;102463.00;;;;5048800;28;20547;-70
2022/05/09 02:10:37;;;;;;;0.40;0.40;;;11.80;99.90;11.50;102455.00;;;;5048683;28;20183;-71
2022/05/09 02:13:03;;;;;;;0.40;0.40;;;11.70;99.90;11.40;102458.00;;;;5048918;28;20241;-71
2022/05/09 02:15:34;;;;;;;0.47;0.47;;;11.60;99.90;11.60;102461.00;;;;5048961;28;20199;-71
2022/05/09 02:18:01;;;;;;;0.50;0.50;;;11.60;99.90;11.60;102457.00;;;;5033360;28;20605;-70
2022/05/09 02:20:29;;;;;;;2.10;2.00;;;11.70;99.90;11.30;102456.00;;;;5048420;28;20645;-70
2022/05/09 02:23:01;;;;;;;0.50;0.50;;;11.50;99.90;11.10;102455.00;;;;5048390;28;20199;-69
2022/05/09 02:25:33;;;;;;;0.50;0.50;;;11.30;99.90;10.80;102453.00;;;;5048692;28;20194;-69
2022/05/09 02:28:02;;;;;;;0.80;0.80;;;11.10;99.90;10.90;102448.00;;;;5048826;28;20179;-69
2022/05/09 02:30:34;;;;;;;0.50;0.50;;;11.10;99.90;10.80;102407.00;;;;5048417;28;20192;-69
2022/05/09 02:33:06;;;;;;;0.60;0.60;;;11.00;99.90;10.70;102451.00;;;;5047984;28;20211;-69
2022/05/09 02:35:35;;;;;;;0.50;0.50;;;10.90;99.90;10.60;102459.00;;;;5048556;28;20221;-69
2022/05/09 02:38:07;;;;;;;0.50;0.50;;;10.90;99.90;10.50;102463.00;;;;5048754;28;20183;-69
2022/05/09 02:40:36;;;;;;;0.50;0.50;;;10.70;99.90;10.20;102460.00;;;;5048518;28;20179;-69
2022/05/09 02:43:13;;;;;;;0.50;0.50;;;10.60;99.90;10.40;102477.00;;;;5032955;28;20170;-69
2022/05/09 02:45:40;;;;;;;0.60;0.60;;;10.60;99.90;10.50;102465.00;;;;5048686;28;20175;-69
2022/05/09 02:48:10;;;;;;;0.50;0.50;;;10.70;99.90;10.20;102448.00;;;;5033113;28;20221;-69
2022/05/09 02:50:39;;;;;;;0.43;0.43;;;10.60;99.90;10.30;102457.00;;;;5048334;28;20192;-69
2022/05/09 02:53:12;;;;;;;0.40;0.40;;;10.50;99.90;10.10;102461.00;;;;5048251;28;20213;-69
2022/05/09 02:55:41;;;;;;;0.50;0.50;;;10.50;99.90;10.20;102454.00;;;;5031895;28;20182;-69
2022/05/09 02:58:07;;;;;;;0.50;0.50;;;10.50;99.90;10.50;102449.00;;;;5048061;28;20183;-69
2022/05/09 03:00:38;;;;;;;0.93;0.93;;;10.60;99.90;10.50;102456.00;;;;5048533;28;20171;-69
2022/05/09 03:05:52;;;;;;;0.50;0.50;;;10.60;99.90;10.60;102444.00;;;;5045748;28;20244;-69
2022/05/09 03:08:24;;;;;;;0.50;0.50;;;10.70;99.90;10.70;102439.00;;;;5048171;28;20185;-68
2022/05/09 03:10:50;;;;;;;0.60;0.60;;;10.70;99.90;10.90;102447.00;;;;5048385;28;20179;-69
2022/05/09 03:13:27;;;;;;;0.50;0.50;;;10.80;99.90;10.50;102425.00;;;;5048644;28;20179;-68
2022/05/09 03:16:19;;;;;;;0.50;0.50;;;10.70;99.90;10.40;102432.00;;;;5047555;28;20187;-68
2022/05/09 03:18:48;;;;;;;0.50;0.50;;;10.60;99.90;10.40;102434.00;;;;5032836;28;20240;-70
2022/05/09 03:21:19;;;;;;;0.50;0.50;;;10.60;99.90;10.20;102395.00;;;;5051854;28;20186;-70
2022/05/09 03:23:47;;;;;;;0.50;0.50;;;10.50;99.90;10.60;102422.00;;;;5036837;28;20639;-71
2022/05/09 03:26:20;;;;;;;0.50;0.50;;;10.50;99.90;10.50;102423.00;;;;5051842;28;20583;-70
2022/05/09 03:28:46;;;;;;;0.40;0.40;;;10.60;99.90;10.50;102418.00;;;;5051233;28;20179;-69
2022/05/09 03:31:13;;;;;;;0.50;0.50;;;10.60;99.90;10.50;102428.00;;;;5051434;28;20580;-69
2022/05/09 03:33:40;;;;;;;0.50;0.50;;;10.60;99.90;10.80;102418.00;;;;5051156;28;20596;-69
2022/05/09 03:36:05;;;;;;;0.60;0.60;;;10.70;99.90;10.20;102427.00;;;;5036465;28;20179;-69
2022/05/09 03:38:34;;;;;;;0.50;0.50;;;10.60;99.90;10.40;102427.00;;;;5051676;28;20186;-69
2022/05/09 03:41:00;;;;;;;0.50;0.50;;;10.60;99.90;10.00;102436.00;;;;5051366;28;20190;-69
2022/05/09 03:43:25;;;;;;;0.50;0.50;;;10.40;99.90;10.60;102425.00;;;;5036360;28;20294;-69
2022/05/09 03:45:52;;;;;;;0.50;0.50;;;10.50;99.90;10.60;102417.00;;;;5051571;28;20249;-69
2022/05/09 03:48:18;;;;;;;0.90;0.90;;;10.60;99.90;10.30;102412.00;;;;5051185;28;20270;-69
2022/05/09 03:50:44;;;;;;;0.50;0.50;;;10.50;99.90;10.10;102418.00;;;;5051735;28;20201;-68
2022/05/09 03:53:10;;;;;;;0.50;0.50;;;10.30;99.90;10.40;102411.00;;;;5051269;28;20658;-68
2022/05/09 03:55:36;;;;;;;1.10;1.10;;;10.40;99.90;10.40;102416.00;;;;5036439;28;20194;-68
2022/05/09 03:58:03;;;;;;;0.50;0.50;;;10.40;99.90;10.50;102421.00;;;;5051161;28;20696;-68
2022/05/09 04:00:32;;;;;;;0.50;0.50;;;10.50;99.90;10.60;102359.00;;;;5034708;28;20182;-68
2022/05/09 04:03:00;;;;;;;0.50;0.50;;;10.60;99.90;10.40;102371.00;;;;5050452;28;20206;-68
2022/05/09 04:05:30;;;;;;;0.50;0.50;;;10.50;99.90;10.50;102404.00;;;;5043179;28;20786;-68
2022/05/09 04:07:59;;;;;;;0.50;0.50;;;10.50;99.90;10.30;102404.00;;;;5015277;28;20215;-68
2022/05/09 04:10:31;;;;;;;0.50;0.50;;;10.40;99.90;10.50;102415.00;;;;5015250;28;20183;-68
2022/05/09 04:12:59;;;;;;;0.40;0.40;;;10.50;99.90;10.40;102405.00;;;;5014176;28;20671;-68
2022/05/09 04:18:16;;;;;;;0.50;0.50;;;10.60;99.90;10.60;102396.00;;;;5014403;28;20194;-68
2022/05/09 04:20:43;;;;;;;0.40;0.40;;;10.60;99.90;10.60;102403.00;;;;5014757;28;20176;-68
2022/05/09 04:23:09;;;;;;;0.43;0.43;;;10.70;99.90;10.10;102400.00;;;;5014195;28;20188;-68
2022/05/09 04:25:36;;;;;;;0.50;0.50;;;10.60;99.90;10.60;102401.00;;;;5014448;28;20172;-68
2022/05/09 04:28:05;;;;;;;0.40;0.40;;;10.60;99.90;10.40;102386.00;;;;5014140;28;20270;-68
2022/05/09 04:30:36;;;;;;;0.50;0.50;;;10.50;99.90;10.30;102395.00;;;;5014772;28;20663;-68
2022/05/09 04:33:04;;;;;;;0.50;0.50;;;10.60;99.90;10.00;102401.00;;;;5013957;28;20227;-68
2022/05/09 04:35:32;;;;;;;0.50;0.50;;;10.60;99.90;10.40;102400.00;;;;5014302;28;20186;-68
2022/05/09 04:37:59;;;;;;;0.60;0.60;;;10.60;99.90;10.60;102341.00;;;;5014375;28;20650;-68
2022/05/09 04:40:28;;;;;;;0.90;0.90;;;10.70;99.90;10.70;102398.00;;;;5013972;28;20593;-68
2022/05/09 04:42:58;;;;;;;0.50;0.50;;;10.80;99.90;10.70;102392.00;;;;5014347;28;20258;-68
2022/05/09 04:45:29;;;;;;;0.90;0.90;;;10.80;99.90;10.80;102390.00;;;;5030322;28;20179;-68
2022/05/09 04:47:55;;;;;;;0.50;0.50;;;10.80;99.90;10.80;102388.00;;;;5013920;28;20266;-68
2022/05/09 04:50:25;;;;;;;0.40;0.40;;;10.90;99.90;10.60;102393.00;;;;5014109;28;20263;-68
2022/05/09 04:52:51;;;;;;;0.40;0.40;;;10.90;99.90;11.10;102398.00;;;;5013777;28;20202;-68
2022/05/09 04:55:18;;;;;;;0.60;0.60;;;11.00;99.90;11.30;102399.00;;;;5014255;28;20180;-68
2022/05/09 04:57:44;;;;;;;0.30;0.30;;;11.30;99.90;11.80;102397.00;;;;5013830;28;20214;-68
2022/05/09 05:00:15;;;;;;;1.37;1.27;;;11.80;99.90;11.80;102390.00;;;;5013427;28;20569;-68
2022/05/09 05:02:43;;;;;;;0.70;0.70;;;12.20;99.90;13.60;102357.00;;;;5013663;28;20202;-68
2022/05/09 05:05:29;;;;;;;0.20;0.20;;;13.20;99.90;15.20;102414.00;;;;5013542;28;20658;-68
2022/05/09 05:07:55;;;;;;;0.73;0.73;;;14.40;99.90;15.80;102422.00;;;;5013866;28;20214;-68
2022/05/09 05:10:22;;;;;;;0.20;0.20;;;15.10;99.90;15.90;102454.00;;;;5013597;28;20614;-69
2022/05/09 05:12:48;;;;;;;0.17;0.17;;;15.40;99.90;16.50;102481.00;;;;5012552;28;20202;-69
2022/05/09 05:15:15;;;;;;;0.20;0.20;;;15.80;99.90;16.70;102459.00;;;;5013081;28;20224;-69
2022/05/09 05:17:41;;;;;;;0.43;0.43;;;16.10;99.90;16.70;102505.00;;;;5013569;28;20182;-69
2022/05/09 05:20:12;;;;;;;0.27;0.27;;;16.40;99.90;17.30;102517.00;;;;5013281;28;20182;-69
2022/05/09 05:22:47;;;;;;;0.10;0.10;;;16.60;99.90;17.00;102509.00;;;;5013609;28;20213;-69
2022/05/09 05:25:25;;;;;;;0.10;0.10;;;16.60;99.90;18.10;102529.00;;;;5013208;28;20185;-69
2022/05/09 05:27:57;;;;;;;0.20;0.20;;;17.40;99.90;18.00;102546.00;;;;5013353;28;20198;-69
2022/05/09 05:30:23;;;;;;;0.53;0.50;;;17.70;99.90;18.60;102548.00;;;;5012976;28;20190;-69
2022/05/09 05:32:50;;;;;;;0.20;0.20;;;17.80;99.90;18.70;102577.00;;;;5013184;28;20211;-69
2022/05/09 05:35:21;;;;;;;1.67;0.70;;;17.90;99.90;18.00;102568.00;;;;5013180;28;20183;-69
2022/05/09 05:37:49;;;;;;;0.70;0.45;;;18.00;99.90;18.90;102573.00;;;;5046250;28;20635;-69
2022/05/09 05:40:17;;;;;;;0.50;0.50;;;18.30;99.90;18.70;102576.00;;;;5029151;28;20183;-68
2022/05/09 05:42:45;;;;;;;0.75;0.63;;;18.20;99.90;18.40;102576.00;;;;5045558;28;20176;-68
2022/05/09 05:45:14;;;;;;;0.10;0.10;;;18.20;99.90;18.30;102570.00;;;;5012636;28;20639;-69
2022/05/09 05:47:40;;;;;;;0.10;0.10;;;18.00;99.90;18.80;102587.00;;;;5013301;28;20191;-69
2022/05/09 05:50:10;;;;;;;0.13;0.13;;;18.60;99.90;19.30;102570.00;;;;5012734;28;20183;-69
2022/05/09 05:52:39;;;;;;;0.47;0.47;;;18.70;99.90;19.60;102601.00;;;;5012748;28;20214;-69
2022/05/09 05:55:06;;;;;;;0.10;0.10;;;19.10;99.90;20.30;102565.00;;;;5012667;28;20172;-69
2022/05/09 05:57:37;;;;;;;0.20;0.20;;;19.60;99.90;19.70;102598.00;;;;5012707;28;20224;-68
2022/05/09 06:00:21;;;;;;;2.60;1.65;;;19.20;99.90;19.90;102602.00;;;;5012768;28;20583;-68
2022/05/09 06:02:48;;;;;;;0.25;0.25;;;19.50;99.90;19.00;102599.00;;;;5012583;28;20188;-69
2022/05/09 06:05:17;;;;;;;5.93;1.15;;;19.00;99.90;19.70;102597.00;;;;5012313;28;20184;-69
2022/05/09 06:07:43;;;;;;;0.75;0.75;;;19.30;99.90;20.10;102569.00;;;;5045972;28;20206;-69
2022/05/09 06:10:12;;;;;;;0.85;0.75;;;19.50;99.90;20.70;102602.00;;;;5012367;28;20738;-69
2022/05/09 06:12:39;;;;;;;0.10;0.10;;;20.00;99.90;21.70;102603.00;;;;5012395;28;20756;-70
2022/05/09 06:15:28;;;;;;;0.30;0.30;;;20.50;99.90;20.80;102613.00;;;;5012575;28;20175;-70
2022/05/09 06:17:56;;;;;;;0.20;0.20;;;20.70;99.90;21.20;102592.00;;;;5012655;28;20175;-70
2022/05/09 06:20:23;;;;;;;1.58;1.40;;;20.80;99.90;17.20;102570.00;;;;5012312;28;20591;-71
2022/05/09 06:22:50;;;;;;;0.73;0.73;;;18.60;99.90;19.90;102618.00;;;;5014056;28;20190;-71
2022/05/09 06:25:19;;;;;;;0.85;0.85;;;19.00;99.90;21.50;102620.00;;;;5012224;28;20183;-71
2022/05/09 06:27:45;;;;;;;1.73;1.63;;;20.20;99.90;21.30;102620.00;;;;5012411;28;20278;-71
2022/05/09 06:30:22;;;;;;;0.28;0.28;;;20.80;99.90;21.30;102610.00;;;;5012321;28;20667;-71
2022/05/09 06:32:49;;;;;;;2.00;0.30;;;20.60;99.90;21.20;102607.00;;;;5012054;28;20229;-71
2022/05/09 06:35:23;;;;;;;0.20;0.20;;;20.70;99.90;23.40;102593.00;;;;5012249;28;20565;-72
2022/05/09 06:37:54;;;;;;;1.10;1.05;;;22.20;99.90;22.30;102606.00;;;;5012461;28;20179;-71
2022/05/09 06:40:27;;;;;;;0.47;0.47;;;22.50;99.90;18.80;102607.00;;;;5029016;28;20257;-70
2022/05/09 06:42:55;;;;;;;0.20;0.20;;;20.50;99.90;21.70;102603.00;;;;5011969;28;20679;-70
2022/05/09 06:45:22;;;;;;;1.08;1.05;;;20.80;99.90;21.60;102599.00;;;;5012255;28;20658;-69
2022/05/09 06:47:51;;;;;;;5.43;3.25;;;21.70;99.90;17.30;102602.00;;;;5028720;28;20620;-68
2022/05/09 06:50:19;;;;;;;0.17;0.17;;;19.40;99.90;20.40;102600.00;;;;5012120;28;20305;-72
2022/05/09 06:52:46;;;;;;;0.30;0.30;;;19.70;99.90;22.00;102602.00;;;;5013116;28;20309;-73
2022/05/09 06:55:13;;;;;;;0.10;0.10;;;21.20;99.90;23.50;102598.00;;;;5022709;28;20198;-72
2022/05/09 06:57:43;;;;;;;0.63;0.63;;;22.50;99.90;25.40;102578.00;;;;5019583;28;20240;-73
2022/05/09 07:00:58;;;;;;;0.10;0.10;;;24.00;99.90;22.70;102529.00;;;;5035527;28;20190;-73
2022/05/09 07:03:30;;;;;;;0.30;0.30;;;24.00;99.40;24.20;102556.00;;;;5024466;28;20280;-73
2022/05/09 07:05:56;;;;;;;0.20;0.20;;;23.30;99.90;25.00;102525.00;;;;5051995;28;20174;-74
2022/05/09 07:08:23;;;;;;;0.80;0.77;;;24.20;99.30;24.60;102544.00;;;;5052137;28;20175;-73
2022/05/09 07:10:49;;;;;;;0.10;0.10;;;24.30;98.10;25.00;102523.00;;;;5051931;28;20174;-73
2022/05/09 07:13:15;;;;;;;0.45;0.45;;;24.30;98.60;24.40;102549.00;;;;5035166;28;20560;-73
2022/05/09 07:15:43;;;;;;;5.57;1.30;;;24.40;98.10;25.80;102542.00;;;;5026245;28;20214;-73
2022/05/09 07:18:13;;;;;;;0.10;0.10;;;25.50;97.00;27.00;102531.00;;;;5016919;28;20242;-73
2022/05/09 07:20:39;;;;;;;0.30;0.30;;;26.00;96.10;28.30;102523.00;;;;4999179;28;20188;-73
2022/05/09 07:23:11;;;;;;;0.65;0.65;;;27.00;94.40;22.60;102526.00;;;;5015197;28;20728;-73
2022/05/09 07:25:38;;;;;;;0.10;0.10;;;24.90;94.10;23.10;102545.00;;;;5015360;28;20183;-72
2022/05/09 07:28:05;;;;;;;0.10;0.10;;;23.80;95.30;23.40;102558.00;;;;5032029;28;20179;-70
2022/05/09 07:30:31;;;;;;;0.28;0.28;;;23.80;95.10;24.00;102559.00;;;;4999372;28;20210;-74
2022/05/09 07:32:57;;;;;;;0.47;0.47;;;23.40;96.60;24.40;102548.00;;;;5030252;28;20223;-73
2022/05/09 07:35:24;;;;;;;0.10;0.10;;;23.70;96.40;23.80;102557.00;;;;5025218;28;20197;-73
2022/05/09 07:37:50;;;;;;;0.10;0.10;;;24.10;95.70;26.40;102544.00;;;;5025741;28;20198;-74
2022/05/09 07:40:19;;;;;;;0.30;0.30;;;25.10;94.80;28.60;102534.00;;;;5031950;28;20195;-74
2022/05/09 07:42:46;;;;;;;0.10;0.10;;;26.90;94.10;23.70;102538.00;;;;5013754;28;20246;-73
2022/05/09 07:45:16;;;;;;;1.85;1.75;;;25.30;93.20;25.20;102546.00;;;;5051457;28;20237;-75
2022/05/09 07:47:42;;;;;;;0.10;0.10;;;25.50;93.50;27.10;102545.00;;;;5018323;28;20187;-75
2022/05/09 07:50:11;;;;;;;0.10;0.10;;;26.10;93.20;28.70;102541.00;;;;5051340;28;20175;-75
2022/05/09 07:52:37;;;;;;;0.40;0.40;;;27.50;92.50;28.70;102540.00;;;;5018179;28;20638;-80
2022/05/09 07:55:05;;;;;;;0.10;0.10;;;28.00;90.50;26.50;102524.00;;;;5034539;28;20179;-78
2022/05/09 07:57:31;;;;;;;0.10;0.10;;;27.30;90.10;26.70;102518.00;;;;5017904;28;20197;-77
2022/05/09 07:59:58;;;;;;;0.10;0.10;;;26.80;90.40;25.90;102546.00;;;;5036157;28;20542;-79
2022/05/09 08:02:29;;;;;;;0.85;0.85;;;26.30;90.30;23.60;102524.00;;;;5050019;28;20210;-78
2022/05/09 08:05:14;;;;;;;0.38;0.38;;;24.60;91.30;24.60;102540.00;;;;5046789;28;20179;-78
2022/05/09 08:08:01;;;;;;;0.10;0.10;;;24.60;92.70;26.10;102519.00;;;;5033266;28;20222;-79
2022/05/09 08:10:27;;;;;;;2.30;1.02;;;25.40;92.00;25.20;102549.00;;;;5057397;28;20234;-79
2022/05/09 08:12:58;;;;;;;0.10;0.10;;;25.40;91.90;25.80;102557.00;;;;5026468;28;20199;-79
2022/05/09 08:15:26;;;;;;;0.20;0.20;;;25.40;92.20;27.60;102548.00;;;;5027391;28;20179;-80
2022/05/09 08:17:52;;;;;;;0.50;0.50;;;26.30;91.60;26.40;102542.00;;;;5034071;28;20179;-79
2022/05/09 08:20:25;;;;;;;0.10;0.10;;;26.40;90.80;25.80;102560.00;;;;5035257;28;20240;-79
2022/05/09 08:23:27;;;;;;;0.73;0.50;;;25.50;91.10;25.30;102544.00;;;;5050130;28;20217;-79
2022/05/09 08:25:55;;;;;;;0.30;0.30;;;25.70;90.70;26.20;102555.00;;;;5030531;28;20187;-79
2022/05/09 08:28:21;;;;;;;0.10;0.10;;;25.70;91.00;26.20;102546.00;;;;5027703;28;20305;-79
2022/05/09 08:30:49;;;;;;;0.10;0.10;;;25.70;91.20;24.70;102547.00;;;;5017348;28;20198;-79
2022/05/09 08:33:24;;;;;;;0.10;0.10;;;25.60;91.00;23.50;102553.00;;;;5050118;28;20185;-79
2022/05/09 08:35:52;;;;;;;1.05;1.05;;;24.50;92.00;24.10;102549.00;;;;5050029;28;20629;-79
2022/05/09 08:38:24;;;;;;;1.55;1.45;;;24.30;91.20;23.80;102554.00;;;;5030335;28;20202;-79
2022/05/09 08:41:16;;;;;;;15.13;6.82;;;24.40;91.30;23.70;102559.00;;;;5010470;28;20216;-79
2022/05/09 08:44:11;;;;;;;0.95;0.95;;;24.30;91.40;23.10;102523.00;;;;5032253;28;20273;-79
2022/05/09 08:47:17;;;;;;;1.23;1.15;;;23.60;92.20;25.50;102545.00;;;;5050572;28;20210;-79
2022/05/09 08:50:17;;;;;;;0.63;0.25;;;24.40;91.60;25.10;102542.00;;;;5048569;28;20287;-79
2022/05/09 08:53:16;;;;;;;0.20;0.20;;;25.00;89.20;25.40;102539.00;;;;5038421;28;20198;-78
2022/05/09 08:55:42;;;;;;;0.75;0.75;;;24.70;87.70;26.10;102536.00;;;;5019811;28;20202;-79
2022/05/09 08:58:37;;;;;;;0.30;0.30;;;25.40;89.30;24.90;102538.00;;;;5050191;28;20237;-78
2022/05/09 09:01:11;;;;;;;2.10;2.00;;;25.20;87.00;22.60;102543.00;;;;5048960;28;20270;-77
2022/05/09 09:03:49;;;;;;;0.10;0.10;;;23.60;89.70;23.40;102544.00;;;;5049866;28;20789;-77
2022/05/09 09:06:56;;;;;;;0.22;0.22;;;23.30;91.10;24.10;102541.00;;;;5049672;28;20175;-80
2022/05/09 09:09:55;;;;;;;0.20;0.20;;;23.70;90.30;22.70;102536.00;;;;5033942;28;20183;-81
2022/05/09 09:12:58;;;;;;;0.22;0.22;;;23.40;90.20;25.00;102530.00;;;;5033917;28;20183;-70
2022/05/09 09:16:17;;;;;;;0.43;0.43;;;24.30;90.70;25.40;102497.00;;;;5048654;28;20636;-79
2022/05/09 09:19:54;;;;;;;2.13;0.57;;;24.90;87.70;24.20;102521.00;;;;5034046;28;20186;-81
2022/05/09 09:22:55;;;;;;;0.82;0.82;;;25.10;86.40;25.60;102526.00;;;;5031559;28;20206;-79
2022/05/09 09:25:43;;;;;;;0.52;0.20;;;24.90;87.60;25.60;102509.00;;;;5014860;28;20178;-79
2022/05/09 09:28:17;;;;;;;0.10;0.10;;;25.50;85.50;27.70;102502.00;;;;5015336;28;20182;-80
2022/05/09 09:30:47;;;;;;;1.05;0.70;;;26.40;84.90;28.30;102465.00;;;;5014779;28;20194;-81
2022/05/09 09:33:16;;;;;;;0.10;0.10;;;27.30;83.60;26.50;102500.00;;;;5048848;28;20270;-79
2022/05/09 09:36:04;;;;;;;0.10;0.10;;;26.80;81.90;27.80;102495.00;;;;5049436;28;20205;-73
2022/05/09 09:38:41;;;;;;;0.10;0.10;;;27.10;82.00;24.90;102507.00;;;;5048434;28;20641;-78
2022/05/09 09:41:31;;;;;;;0.20;0.20;;;25.80;83.00;25.60;102518.00;;;;5032786;28;20167;-79
2022/05/09 09:44:23;;;;;;;0.15;0.15;;;25.70;83.40;27.20;102500.00;;;;5048032;28;20198;-78
2022/05/09 09:47:50;;;;;;;0.10;0.10;;;26.20;82.40;27.10;102498.00;;;;5049098;28;20186;-79
2022/05/09 09:50:25;;;;;;;0.32;0.32;;;26.70;81.60;24.90;102514.00;;;;5030457;28;20536;-78
2022/05/09 09:52:56;;;;;;;0.22;0.22;;;26.00;79.90;25.80;102504.00;;;;5014034;28;20197;-79
2022/05/09 09:55:38;;;;;;;0.20;0.20;;;25.80;81.10;24.80;102514.00;;;;5024350;28;20199;-78
2022/05/09 09:58:28;;;;;;;0.10;0.10;;;25.20;82.10;26.60;102499.00;;;;5032450;28;20185;-78
2022/05/09 10:01:23;;;;;;;1.17;0.50;;;25.80;81.80;24.60;102492.00;;;;5031048;28;20178;-78
2022/05/09 10:04:12;;;;;;;0.17;0.17;;;25.80;79.40;23.80;102486.00;;;;5045639;28;20186;-78
2022/05/09 10:07:05;;;;;;;0.63;0.63;;;24.70;81.40;25.20;102476.00;;;;5009239;28;20551;-80
2022/05/09 10:09:59;;;;;;;0.52;0.52;;;24.60;81.90;27.10;102481.00;;;;5031717;28;20586;-79
2022/05/09 10:12:59;;;;;;;0.73;0.30;;;26.10;81.30;26.00;102482.00;;;;5033309;28;20607;-81
2022/05/09 10:15:34;;;;;;;0.10;0.10;;;25.70;81.30;23.80;102488.00;;;;5029273;28;20242;-79
2022/05/09 10:18:23;;;;;;;0.57;0.57;;;24.90;82.00;24.60;102498.00;;;;5025529;28;20193;-80
2022/05/09 10:33:35;;;;;;;0.10;0.10;;;25.40;79.20;25.00;102479.00;;;;5070131;28;20609;-78
2022/05/09 10:36:18;;;;;;;0.20;0.20;;;25.40;79.90;26.80;102452.00;;;;5049408;28;20206;-78
2022/05/09 10:40:16;;;;;;;0.57;0.57;;;26.00;79.80;26.40;102445.00;;;;5048848;28;20645;-79
2022/05/09 10:42:55;;;;;;;0.30;0.30;;;26.80;78.20;24.80;102462.00;;;;5016991;28;20221;-78
2022/05/09 10:45:30;;;;;;;0.60;0.38;;;26.00;78.00;26.60;102450.00;;;;5047754;28;20178;-79
2022/05/09 10:48:40;;;;;;;0.10;0.10;;;26.20;78.60;27.60;102422.00;;;;5046913;28;20208;-78
2022/05/09 10:51:20;;;;;;;0.57;0.57;;;27.10;77.60;28.30;102434.00;;;;5044723;28;20232;-79
2022/05/09 10:54:20;;;;;;;0.20;0.20;;;27.90;77.70;28.60;102425.00;;;;5049136;28;20208;-77
2022/05/09 10:56:58;;;;;;;0.10;0.10;;;28.20;75.40;28.10;102436.00;;;;5048171;28;20174;-78
2022/05/09 10:59:33;;;;;;;0.52;0.52;;;27.80;75.00;26.40;102434.00;;;;5048571;28;20653;-79
2022/05/09 11:02:15;;;;;;;0.10;0.10;;;27.10;75.10;26.50;102404.00;;;;5048708;28;20657;-79
2022/05/09 11:04:41;;;;;;;0.10;0.10;;;26.70;75.70;27.90;102423.00;;;;5048509;28;20256;-80
2022/05/09 11:07:38;;;;;;;0.20;0.20;;;27.00;76.70;28.30;102428.00;;;;5048077;28;20190;-78
2022/05/09 11:10:13;;;;;;;0.10;0.10;;;28.20;75.70;26.70;102432.00;;;;5027901;28;20197;-81
2022/05/09 11:13:24;;;;;;;0.43;0.43;;;27.30;76.80;27.30;102409.00;;;;5046875;28;20213;-81
2022/05/09 11:16:33;;;;;;;0.17;0.17;;;26.90;77.20;27.90;102426.00;;;;5048332;28;20626;-81
2022/05/09 11:19:30;;;;;;;0.10;0.10;;;27.30;76.50;26.60;102423.00;;;;5049043;28;20654;-81
2022/05/09 11:22:20;;;;;;;0.63;0.63;;;26.50;76.50;27.00;102405.00;;;;5048207;28;20182;-79
2022/05/09 11:24:59;;;;;;;0.20;0.20;;;26.90;76.30;26.10;102406.00;;;;5048753;28;20210;-80
2022/05/09 11:27:51;;;;;;;0.73;0.70;;;26.00;77.10;25.00;102436.00;;;;5047495;28;20194;-82
2022/05/09 11:30:44;;;;;;;0.30;0.30;;;26.30;76.80;24.50;102431.00;;;;5048489;28;20201;-79
2022/05/09 11:33:58;;;;;;;0.45;0.45;;;25.80;77.60;26.40;102378.00;;;;5048989;28;20277;-79
2022/05/09 11:36:59;;;;;;;0.35;0.35;;;25.80;79.80;26.70;102410.00;;;;5048212;28;20171;-81
2022/05/09 11:39:48;;;;;;;0.30;0.22;;;26.50;79.00;26.70;102412.00;;;;5049293;28;20181;-80
2022/05/09 11:45:48;;;;;;;0.10;0.10;;;26.90;79.60;24.20;102422.00;;;;5035631;28;20171;-81
2022/05/09 11:48:42;;;;;;;0.40;0.40;;;25.10;78.60;25.90;102415.00;;;;5029748;28;20183;-81